sensor_id;sensor_type;location;lat;lon;timestamp;temperature;humidity
40534;DHT22;26233;51.894;10.192;2022-09-09T00:02:27;18.30;50.20
40534;DHT22;26233;51.894;10.192;2022-09-09T00:04:59;18.30;50.20
40534;DHT22;26233;51.894;10.192;2022-09-09T00:07:37;18.30;50.20
40534;DHT22;26233;51.894;10.192;2022-09-09T00:10:16;18.30;50.20
40534;DHT22;26233;51.894;10.192;2022-09-09T00:12:54;18.30;50.20
40534;DHT22;26233;51.894;10.192;2022-09-09T00:15:28;18.30;50.20
40534;DHT22;26233;51.894;10.192;2022-09-09T00:18:07;18.30;50.10
40534;DHT22;26233;51.894;10.192;2022-09-09T00:20:45;18.30;50.20
40534;DHT22;26233;51.894;10.192;2022-09-09T00:23:22;18.30;50.10
40534;DHT22;26233;51.894;10.192;2022-09-09T00:25:59;18.30;50.10
40534;DHT22;26233;51.894;10.192;2022-09-09T00:28:35;18.30;50.10
40534;DHT22;26233;51.894;10.192;2022-09-09T00:31:12;18.30;50.10
40534;DHT22;26233;51.894;10.192;2022-09-09T00:33:42;18.30;50.10
40534;DHT22;26233;51.894;10.192;2022-09-09T00:36:14;18.30;50.00
40534;DHT22;26233;51.894;10.192;2022-09-09T00:38:48;18.20;50.00
40534;DHT22;26233;51.894;10.192;2022-09-09T00:41:21;18.20;50.10
40534;DHT22;26233;51.894;10.192;2022-09-09T00:44:02;18.20;50.10
40534;DHT22;26233;51.894;10.192;2022-09-09T00:46:52;18.20;50.10
40534;DHT22;26233;51.894;10.192;2022-09-09T00:49:32;18.20;50.20
40534;DHT22;26233;51.894;10.192;2022-09-09T00:52:21;18.20;50.10
40534;DHT22;26233;51.894;10.192;2022-09-09T00:55:03;18.20;50.10
40534;DHT22;26233;51.894;10.192;2022-09-09T00:57:34;18.20;50.20
40534;DHT22;26233;51.894;10.192;2022-09-09T01:00:24;18.20;50.10
40534;DHT22;26233;51.894;10.192;2022-09-09T01:03:25;18.20;50.10
40534;DHT22;26233;51.894;10.192;2022-09-09T01:06:02;18.30;50.20
40534;DHT22;26233;51.894;10.192;2022-09-09T01:09:09;18.30;50.10
40534;DHT22;26233;51.894;10.192;2022-09-09T01:11:50;18.30;50.10
40534;DHT22;26233;51.894;10.192;2022-09-09T01:14:35;18.30;50.10
40534;DHT22;26233;51.894;10.192;2022-09-09T01:17:14;18.30;50.00
40534;DHT22;26233;51.894;10.192;2022-09-09T01:19:53;18.30;50.00
40534;DHT22;26233;51.894;10.192;2022-09-09T01:22:32;18.30;50.00
40534;DHT22;26233;51.894;10.192;2022-09-09T01:25:27;18.30;50.00
40534;DHT22;26233;51.894;10.192;2022-09-09T01:27:59;18.30;50.10
40534;DHT22;26233;51.894;10.192;2022-09-09T01:30:28;18.30;50.10
40534;DHT22;26233;51.894;10.192;2022-09-09T01:32:57;18.30;50.10
40534;DHT22;26233;51.894;10.192;2022-09-09T01:35:35;18.30;50.10
40534;DHT22;26233;51.894;10.192;2022-09-09T01:38:06;18.30;50.00
40534;DHT22;26233;51.894;10.192;2022-09-09T01:40:33;18.30;50.00
40534;DHT22;26233;51.894;10.192;2022-09-09T01:43:02;18.30;50.00
40534;DHT22;26233;51.894;10.192;2022-09-09T01:45:29;18.30;50.00
40534;DHT22;26233;51.894;10.192;2022-09-09T01:47:57;18.30;50.00
40534;DHT22;26233;51.894;10.192;2022-09-09T01:50:24;18.30;50.00
40534;DHT22;26233;51.894;10.192;2022-09-09T01:52:54;18.30;50.00
40534;DHT22;26233;51.894;10.192;2022-09-09T01:55:29;18.30;50.00
40534;DHT22;26233;51.894;10.192;2022-09-09T01:58:17;18.30;50.00
40534;DHT22;26233;51.894;10.192;2022-09-09T02:01:00;18.40;50.10
40534;DHT22;26233;51.894;10.192;2022-09-09T02:03:33;18.40;50.10
40534;DHT22;26233;51.894;10.192;2022-09-09T02:06:10;18.40;50.80
40534;DHT22;26233;51.894;10.192;2022-09-09T02:08:43;18.40;50.10
40534;DHT22;26233;51.894;10.192;2022-09-09T02:11:14;18.40;50.10
40534;DHT22;26233;51.894;10.192;2022-09-09T02:13:46;18.50;50.20
40534;DHT22;26233;51.894;10.192;2022-09-09T02:16:18;18.50;50.20
40534;DHT22;26233;51.894;10.192;2022-09-09T02:18:51;18.50;50.10
40534;DHT22;26233;51.894;10.192;2022-09-09T02:21:22;18.50;50.10
40534;DHT22;26233;51.894;10.192;2022-09-09T02:23:50;18.50;50.00
40534;DHT22;26233;51.894;10.192;2022-09-09T02:26:19;18.50;50.00
40534;DHT22;26233;51.894;10.192;2022-09-09T02:28:51;18.50;49.90
40534;DHT22;26233;51.894;10.192;2022-09-09T02:31:22;18.50;50.00
40534;DHT22;26233;51.894;10.192;2022-09-09T02:33:54;18.50;49.90
40534;DHT22;26233;51.894;10.192;2022-09-09T02:36:24;18.50;50.00
40534;DHT22;26233;51.894;10.192;2022-09-09T02:38:52;18.60;50.10
40534;DHT22;26233;51.894;10.192;2022-09-09T02:41:22;18.60;50.10
40534;DHT22;26233;51.894;10.192;2022-09-09T02:43:53;18.60;50.10
40534;DHT22;26233;51.894;10.192;2022-09-09T02:46:36;18.60;50.10
40534;DHT22;26233;51.894;10.192;2022-09-09T02:49:15;18.60;50.00
40534;DHT22;26233;51.894;10.192;2022-09-09T02:51:51;18.60;50.00
40534;DHT22;26233;51.894;10.192;2022-09-09T02:54:27;18.60;50.00
40534;DHT22;26233;51.894;10.192;2022-09-09T02:57:01;18.60;49.90
40534;DHT22;26233;51.894;10.192;2022-09-09T02:59:32;18.70;50.00
40534;DHT22;26233;51.894;10.192;2022-09-09T03:02:00;18.70;50.00
40534;DHT22;26233;51.894;10.192;2022-09-09T03:04:27;18.70;49.90
40534;DHT22;26233;51.894;10.192;2022-09-09T03:06:54;18.70;49.90
40534;DHT22;26233;51.894;10.192;2022-09-09T03:09:21;18.70;49.90
40534;DHT22;26233;51.894;10.192;2022-09-09T03:11:48;18.70;49.90
40534;DHT22;26233;51.894;10.192;2022-09-09T03:14:15;18.70;49.90
40534;DHT22;26233;51.894;10.192;2022-09-09T03:16:47;18.70;49.90
40534;DHT22;26233;51.894;10.192;2022-09-09T03:19:14;18.70;49.90
40534;DHT22;26233;51.894;10.192;2022-09-09T03:21:42;18.70;49.90
40534;DHT22;26233;51.894;10.192;2022-09-09T03:24:09;18.60;49.80
40534;DHT22;26233;51.894;10.192;2022-09-09T03:26:36;18.70;49.80
40534;DHT22;26233;51.894;10.192;2022-09-09T03:29:03;18.60;49.70
40534;DHT22;26233;51.894;10.192;2022-09-09T03:31:32;18.60;49.80
40534;DHT22;26233;51.894;10.192;2022-09-09T03:34:00;18.60;49.80
40534;DHT22;26233;51.894;10.192;2022-09-09T03:36:28;18.60;49.80
40534;DHT22;26233;51.894;10.192;2022-09-09T03:38:55;18.60;49.90
40534;DHT22;26233;51.894;10.192;2022-09-09T03:41:23;18.60;49.90
40534;DHT22;26233;51.894;10.192;2022-09-09T03:43:52;18.60;49.90
40534;DHT22;26233;51.894;10.192;2022-09-09T03:46:20;18.60;49.90
40534;DHT22;26233;51.894;10.192;2022-09-09T03:48:48;18.60;49.90
40534;DHT22;26233;51.894;10.192;2022-09-09T03:51:16;18.60;49.90
40534;DHT22;26233;51.894;10.192;2022-09-09T03:53:44;18.50;49.80
40534;DHT22;26233;51.894;10.192;2022-09-09T03:56:12;18.50;49.80
40534;DHT22;26233;51.894;10.192;2022-09-09T03:58:39;18.50;49.80
40534;DHT22;26233;51.894;10.192;2022-09-09T04:01:08;18.50;49.80
40534;DHT22;26233;51.894;10.192;2022-09-09T04:03:36;18.50;49.90
40534;DHT22;26233;51.894;10.192;2022-09-09T04:06:04;18.50;49.90
40534;DHT22;26233;51.894;10.192;2022-09-09T04:08:34;18.50;49.90
40534;DHT22;26233;51.894;10.192;2022-09-09T04:11:03;18.50;49.90
40534;DHT22;26233;51.894;10.192;2022-09-09T04:13:31;18.50;49.90
40534;DHT22;26233;51.894;10.192;2022-09-09T04:16:00;18.50;50.00
40534;DHT22;26233;51.894;10.192;2022-09-09T04:18:29;18.50;50.00
40534;DHT22;26233;51.894;10.192;2022-09-09T04:20:57;18.50;50.00
40534;DHT22;26233;51.894;10.192;2022-09-09T04:23:25;18.50;50.00
40534;DHT22;26233;51.894;10.192;2022-09-09T04:25:57;18.50;50.00
40534;DHT22;26233;51.894;10.192;2022-09-09T04:28:27;18.50;49.90
40534;DHT22;26233;51.894;10.192;2022-09-09T04:30:56;18.50;49.90
40534;DHT22;26233;51.894;10.192;2022-09-09T04:33:30;18.50;50.00
40534;DHT22;26233;51.894;10.192;2022-09-09T04:35:57;18.50;50.00
40534;DHT22;26233;51.894;10.192;2022-09-09T04:38:25;18.40;50.00
40534;DHT22;26233;51.894;10.192;2022-09-09T04:40:52;18.50;50.00
40534;DHT22;26233;51.894;10.192;2022-09-09T04:43:21;18.50;50.00
40534;DHT22;26233;51.894;10.192;2022-09-09T04:45:51;18.50;50.10
40534;DHT22;26233;51.894;10.192;2022-09-09T04:48:18;18.50;50.10
40534;DHT22;26233;51.894;10.192;2022-09-09T04:50:54;18.50;50.10
40534;DHT22;26233;51.894;10.192;2022-09-09T04:53:22;18.50;50.10
40534;DHT22;26233;51.894;10.192;2022-09-09T04:55:49;18.50;50.10
40534;DHT22;26233;51.894;10.192;2022-09-09T04:58:16;18.50;50.00
40534;DHT22;26233;51.894;10.192;2022-09-09T05:00:45;18.50;50.00
40534;DHT22;26233;51.894;10.192;2022-09-09T05:03:12;18.50;50.00
40534;DHT22;26233;51.894;10.192;2022-09-09T05:05:39;18.40;50.00
40534;DHT22;26233;51.894;10.192;2022-09-09T05:08:07;18.40;49.90
40534;DHT22;26233;51.894;10.192;2022-09-09T05:10:38;18.40;49.90
40534;DHT22;26233;51.894;10.192;2022-09-09T05:13:07;18.40;50.00
40534;DHT22;26233;51.894;10.192;2022-09-09T05:15:34;18.40;50.00
40534;DHT22;26233;51.894;10.192;2022-09-09T05:18:03;18.30;50.50
40534;DHT22;26233;51.894;10.192;2022-09-09T05:20:30;18.40;50.00
40534;DHT22;26233;51.894;10.192;2022-09-09T05:22:57;18.40;50.00
40534;DHT22;26233;51.894;10.192;2022-09-09T05:25:24;18.30;50.00
40534;DHT22;26233;51.894;10.192;2022-09-09T05:27:52;18.30;50.00
40534;DHT22;26233;51.894;10.192;2022-09-09T05:30:20;18.30;50.10
40534;DHT22;26233;51.894;10.192;2022-09-09T05:32:47;18.30;50.10
40534;DHT22;26233;51.894;10.192;2022-09-09T05:35:17;18.30;50.20
40534;DHT22;26233;51.894;10.192;2022-09-09T05:37:44;18.30;50.20
40534;DHT22;26233;51.894;10.192;2022-09-09T05:40:12;18.30;50.20
40534;DHT22;26233;51.894;10.192;2022-09-09T05:42:39;18.30;50.30
40534;DHT22;26233;51.894;10.192;2022-09-09T05:45:07;18.30;50.30
40534;DHT22;26233;51.894;10.192;2022-09-09T05:47:35;18.30;50.30
40534;DHT22;26233;51.894;10.192;2022-09-09T05:50:03;18.40;50.40
40534;DHT22;26233;51.894;10.192;2022-09-09T05:52:32;18.40;50.40
40534;DHT22;26233;51.894;10.192;2022-09-09T05:55:00;18.40;50.60
40534;DHT22;26233;51.894;10.192;2022-09-09T05:57:29;18.60;51.40
40534;DHT22;26233;51.894;10.192;2022-09-09T05:59:56;18.80;52.40
40534;DHT22;26233;51.894;10.192;2022-09-09T06:02:23;19.10;53.00
40534;DHT22;26233;51.894;10.192;2022-09-09T06:04:50;19.50;53.40
40534;DHT22;26233;51.894;10.192;2022-09-09T06:07:17;19.90;53.20
40534;DHT22;26233;51.894;10.192;2022-09-09T06:09:45;20.30;53.30
40534;DHT22;26233;51.894;10.192;2022-09-09T06:12:12;20.60;52.90
40534;DHT22;26233;51.894;10.192;2022-09-09T06:14:39;21.00;52.80
40534;DHT22;26233;51.894;10.192;2022-09-09T06:17:06;21.40;52.80
40534;DHT22;26233;51.894;10.192;2022-09-09T06:19:34;21.80;52.40
40534;DHT22;26233;51.894;10.192;2022-09-09T06:22:01;22.20;51.80
40534;DHT22;26233;51.894;10.192;2022-09-09T06:24:28;22.40;51.20
40534;DHT22;26233;51.894;10.192;2022-09-09T06:26:57;22.70;50.80
40534;DHT22;26233;51.894;10.192;2022-09-09T06:29:26;22.80;50.10
40534;DHT22;26233;51.894;10.192;2022-09-09T06:31:54;22.90;49.50
40534;DHT22;26233;51.894;10.192;2022-09-09T06:34:21;23.10;49.40
40534;DHT22;26233;51.894;10.192;2022-09-09T06:36:48;23.10;49.10
40534;DHT22;26233;51.894;10.192;2022-09-09T06:39:19;23.10;48.40
40534;DHT22;26233;51.894;10.192;2022-09-09T06:41:47;23.00;47.60
40534;DHT22;26233;51.894;10.192;2022-09-09T06:44:19;22.80;47.40
40534;DHT22;26233;51.894;10.192;2022-09-09T06:46:48;22.70;47.20
40534;DHT22;26233;51.894;10.192;2022-09-09T06:49:15;22.50;47.10
40534;DHT22;26233;51.894;10.192;2022-09-09T06:51:42;22.30;47.10
40534;DHT22;26233;51.894;10.192;2022-09-09T06:54:10;22.10;46.90
40534;DHT22;26233;51.894;10.192;2022-09-09T06:56:39;21.90;46.80
40534;DHT22;26233;51.894;10.192;2022-09-09T06:59:07;21.80;47.10
40534;DHT22;26233;51.894;10.192;2022-09-09T07:01:38;21.60;47.20
40534;DHT22;26233;51.894;10.192;2022-09-09T07:04:06;21.50;47.40
40534;DHT22;26233;51.894;10.192;2022-09-09T07:06:36;21.40;47.60
40534;DHT22;26233;51.894;10.192;2022-09-09T07:09:05;21.30;47.70
40534;DHT22;26233;51.894;10.192;2022-09-09T07:11:37;21.20;47.70
40534;DHT22;26233;51.894;10.192;2022-09-09T07:14:07;21.20;48.00
40534;DHT22;26233;51.894;10.192;2022-09-09T07:16:35;21.30;48.60
40534;DHT22;26233;51.894;10.192;2022-09-09T07:19:04;21.40;49.40
40534;DHT22;26233;51.894;10.192;2022-09-09T07:21:32;21.60;49.40
40534;DHT22;26233;51.894;10.192;2022-09-09T07:24:00;21.80;48.80
40534;DHT22;26233;51.894;10.192;2022-09-09T07:26:29;21.90;48.90
40534;DHT22;26233;51.894;10.192;2022-09-09T07:28:57;22.10;48.80
40534;DHT22;26233;51.894;10.192;2022-09-09T07:31:26;22.20;48.60
40534;DHT22;26233;51.894;10.192;2022-09-09T07:33:57;22.30;48.60
40534;DHT22;26233;51.894;10.192;2022-09-09T07:36:27;22.50;49.00
40534;DHT22;26233;51.894;10.192;2022-09-09T07:38:57;22.80;49.40
40534;DHT22;26233;51.894;10.192;2022-09-09T07:41:26;23.20;50.60
40534;DHT22;26233;51.894;10.192;2022-09-09T07:43:55;23.70;51.40
40534;DHT22;26233;51.894;10.192;2022-09-09T07:46:27;24.30;52.00
40534;DHT22;26233;51.894;10.192;2022-09-09T07:48:56;25.00;52.10
40534;DHT22;26233;51.894;10.192;2022-09-09T07:51:25;25.80;51.90
40534;DHT22;26233;51.894;10.192;2022-09-09T07:53:55;26.50;50.90
40534;DHT22;26233;51.894;10.192;2022-09-09T07:56:24;27.10;49.50
40534;DHT22;26233;51.894;10.192;2022-09-09T07:58:53;27.40;47.90
40534;DHT22;26233;51.894;10.192;2022-09-09T08:01:23;27.60;46.70
40534;DHT22;26233;51.894;10.192;2022-09-09T08:03:57;27.70;45.80
40534;DHT22;26233;51.894;10.192;2022-09-09T08:06:26;27.70;45.20
40534;DHT22;26233;51.894;10.192;2022-09-09T08:08:54;27.80;45.80
40534;DHT22;26233;51.894;10.192;2022-09-09T08:11:23;28.00;45.80
40534;DHT22;26233;51.894;10.192;2022-09-09T08:13:52;28.20;45.70
40534;DHT22;26233;51.894;10.192;2022-09-09T08:16:22;28.40;46.20
40534;DHT22;26233;51.894;10.192;2022-09-09T08:18:51;28.70;45.50
40534;DHT22;26233;51.894;10.192;2022-09-09T08:21:23;28.90;45.10
40534;DHT22;26233;51.894;10.192;2022-09-09T08:23:54;29.00;44.20
40534;DHT22;26233;51.894;10.192;2022-09-09T08:26:23;29.00;43.70
40534;DHT22;26233;51.894;10.192;2022-09-09T08:28:54;29.00;43.20
40534;DHT22;26233;51.894;10.192;2022-09-09T08:31:24;28.80;42.60
40534;DHT22;26233;51.894;10.192;2022-09-09T08:33:54;28.70;43.00
40534;DHT22;26233;51.894;10.192;2022-09-09T08:36:25;28.60;42.80
40534;DHT22;26233;51.894;10.192;2022-09-09T08:38:56;28.60;43.20
40534;DHT22;26233;51.894;10.192;2022-09-09T08:44:26;28.90;43.80
40534;DHT22;26233;51.894;10.192;2022-09-09T08:47:02;29.30;44.30
40534;DHT22;26233;51.894;10.192;2022-09-09T08:49:51;29.80;44.30
40534;DHT22;26233;51.894;10.192;2022-09-09T08:52:42;30.20;43.60
40534;DHT22;26233;51.894;10.192;2022-09-09T08:55:21;30.80;43.40
40534;DHT22;26233;51.894;10.192;2022-09-09T08:57:53;31.10;41.90
40534;DHT22;26233;51.894;10.192;2022-09-09T09:00:30;31.20;41.50
40534;DHT22;26233;51.894;10.192;2022-09-09T09:03:06;31.00;40.30
40534;DHT22;26233;51.894;10.192;2022-09-09T09:05:46;30.70;39.20
40534;DHT22;26233;51.894;10.192;2022-09-09T09:08:24;30.50;39.50
40534;DHT22;26233;51.894;10.192;2022-09-09T09:10:55;30.30;40.00
40534;DHT22;26233;51.894;10.192;2022-09-09T09:13:30;30.30;40.70
40534;DHT22;26233;51.894;10.192;2022-09-09T09:16:09;30.20;40.30
40534;DHT22;26233;51.894;10.192;2022-09-09T09:18:41;30.10;39.60
40534;DHT22;26233;51.894;10.192;2022-09-09T09:21:12;30.00;40.00
40534;DHT22;26233;51.894;10.192;2022-09-09T09:23:59;29.80;39.50
40534;DHT22;26233;51.894;10.192;2022-09-09T09:26:31;29.60;39.30
40534;DHT22;26233;51.894;10.192;2022-09-09T09:29:03;29.40;39.40
40534;DHT22;26233;51.894;10.192;2022-09-09T09:31:37;29.20;39.40
40534;DHT22;26233;51.894;10.192;2022-09-09T09:34:04;28.80;38.90
40534;DHT22;26233;51.894;10.192;2022-09-09T09:36:40;28.40;38.60
40534;DHT22;26233;51.894;10.192;2022-09-09T09:39:22;28.00;38.30
40534;DHT22;26233;51.894;10.192;2022-09-09T09:41:51;27.70;39.00
40534;DHT22;26233;51.894;10.192;2022-09-09T09:44:26;27.60;40.20
40534;DHT22;26233;51.894;10.192;2022-09-09T09:47:06;27.70;40.40
40534;DHT22;26233;51.894;10.192;2022-09-09T09:49:34;27.80;40.50
40534;DHT22;26233;51.894;10.192;2022-09-09T09:52:01;28.10;41.20
40534;DHT22;26233;51.894;10.192;2022-09-09T09:54:33;28.50;41.60
40534;DHT22;26233;51.894;10.192;2022-09-09T09:57:11;28.90;41.20
40534;DHT22;26233;51.894;10.192;2022-09-09T09:59:40;29.30;40.90
40534;DHT22;26233;51.894;10.192;2022-09-09T10:02:17;29.50;40.20
40534;DHT22;26233;51.894;10.192;2022-09-09T10:04:45;29.40;38.70
40534;DHT22;26233;51.894;10.192;2022-09-09T10:07:17;29.20;38.20
40534;DHT22;26233;51.894;10.192;2022-09-09T10:09:53;29.00;37.90
40534;DHT22;26233;51.894;10.192;2022-09-09T10:12:29;28.70;37.70
40534;DHT22;26233;51.894;10.192;2022-09-09T10:15:04;28.60;38.70
40534;DHT22;26233;51.894;10.192;2022-09-09T10:17:52;28.60;39.20
40534;DHT22;26233;51.894;10.192;2022-09-09T10:20:31;28.70;39.00
40534;DHT22;26233;51.894;10.192;2022-09-09T10:23:11;28.90;38.70
40534;DHT22;26233;51.894;10.192;2022-09-09T10:26:02;29.10;38.70
40534;DHT22;26233;51.894;10.192;2022-09-09T10:28:54;29.30;38.20
40534;DHT22;26233;51.894;10.192;2022-09-09T10:31:33;29.50;37.60
40534;DHT22;26233;51.894;10.192;2022-09-09T10:34:13;29.60;38.00
40534;DHT22;26233;51.894;10.192;2022-09-09T10:36:49;29.80;38.20
40534;DHT22;26233;51.894;10.192;2022-09-09T10:39:28;29.90;38.10
40534;DHT22;26233;51.894;10.192;2022-09-09T10:42:05;30.00;37.60
40534;DHT22;26233;51.894;10.192;2022-09-09T10:44:47;30.00;37.20
40534;DHT22;26233;51.894;10.192;2022-09-09T10:47:32;29.90;36.50
40534;DHT22;26233;51.894;10.192;2022-09-09T10:50:29;29.70;37.30
40534;DHT22;26233;51.894;10.192;2022-09-09T10:53:13;29.50;36.80
40534;DHT22;26233;51.894;10.192;2022-09-09T10:55:43;29.50;37.00
40534;DHT22;26233;51.894;10.192;2022-09-09T10:58:17;29.30;36.50
40534;DHT22;26233;51.894;10.192;2022-09-09T11:00:52;29.10;36.10
40534;DHT22;26233;51.894;10.192;2022-09-09T11:03:23;28.70;36.00
40534;DHT22;26233;51.894;10.192;2022-09-09T11:05:58;28.30;36.00
40534;DHT22;26233;51.894;10.192;2022-09-09T11:08:29;27.90;35.90
40534;DHT22;26233;51.894;10.192;2022-09-09T11:11:01;27.60;36.20
40534;DHT22;26233;51.894;10.192;2022-09-09T11:13:37;27.50;37.00
40534;DHT22;26233;51.894;10.192;2022-09-09T11:16:17;27.60;37.70
40534;DHT22;26233;51.894;10.192;2022-09-09T11:18:49;27.90;38.40
40534;DHT22;26233;51.894;10.192;2022-09-09T11:21:20;28.30;38.50
40534;DHT22;26233;51.894;10.192;2022-09-09T11:23:53;28.60;38.70
40534;DHT22;26233;51.894;10.192;2022-09-09T11:26:30;28.80;38.70
40534;DHT22;26233;51.894;10.192;2022-09-09T11:29:20;29.10;38.20
40534;DHT22;26233;51.894;10.192;2022-09-09T11:32:04;29.50;37.30
40534;DHT22;26233;51.894;10.192;2022-09-09T11:34:44;29.70;37.60
40534;DHT22;26233;51.894;10.192;2022-09-09T11:40:19;30.00;36.50
40534;DHT22;26233;51.894;10.192;2022-09-09T11:42:48;29.90;36.00
40534;DHT22;26233;51.894;10.192;2022-09-09T11:45:23;30.00;36.60
40534;DHT22;26233;51.894;10.192;2022-09-09T11:47:55;30.00;36.40
40534;DHT22;26233;51.894;10.192;2022-09-09T11:50:34;30.30;37.00
40534;DHT22;26233;51.894;10.192;2022-09-09T11:53:19;30.40;36.00
40534;DHT22;26233;51.894;10.192;2022-09-09T11:56:11;30.50;35.30
40534;DHT22;26233;51.894;10.192;2022-09-09T11:58:43;30.60;34.50
40534;DHT22;26233;51.894;10.192;2022-09-09T12:01:37;30.50;34.30
40534;DHT22;26233;51.894;10.192;2022-09-09T12:04:26;30.20;33.50
40534;DHT22;26233;51.894;10.192;2022-09-09T12:07:00;29.90;33.10
40534;DHT22;26233;51.894;10.192;2022-09-09T12:09:40;29.40;32.90
40534;DHT22;26233;51.894;10.192;2022-09-09T12:12:29;28.90;33.00
40534;DHT22;26233;51.894;10.192;2022-09-09T12:15:02;28.60;33.40
40534;DHT22;26233;51.894;10.192;2022-09-09T12:17:49;28.30;33.90
40534;DHT22;26233;51.894;10.192;2022-09-09T12:20:18;28.10;34.30
40534;DHT22;26233;51.894;10.192;2022-09-09T12:23:01;28.00;34.70
40534;DHT22;26233;51.894;10.192;2022-09-09T12:25:47;27.90;34.20
40534;DHT22;26233;51.894;10.192;2022-09-09T12:28:21;27.80;34.00
40534;DHT22;26233;51.894;10.192;2022-09-09T12:30:58;27.60;34.00
40534;DHT22;26233;51.894;10.192;2022-09-09T12:33:36;27.50;34.60
40534;DHT22;26233;51.894;10.192;2022-09-09T12:36:10;27.60;35.30
40534;DHT22;26233;51.894;10.192;2022-09-09T12:38:41;27.70;34.50
40534;DHT22;26233;51.894;10.192;2022-09-09T12:41:19;27.70;34.00
40534;DHT22;26233;51.894;10.192;2022-09-09T12:43:48;27.60;33.20
40534;DHT22;26233;51.894;10.192;2022-09-09T12:46:24;27.40;33.10
40534;DHT22;26233;51.894;10.192;2022-09-09T12:48:58;27.10;32.80
40534;DHT22;26233;51.894;10.192;2022-09-09T12:51:28;26.90;33.00
40534;DHT22;26233;51.894;10.192;2022-09-09T12:53:57;26.80;33.50
40534;DHT22;26233;51.894;10.192;2022-09-09T12:56:26;26.70;33.60
40534;DHT22;26233;51.894;10.192;2022-09-09T12:58:56;26.60;33.70
40534;DHT22;26233;51.894;10.192;2022-09-09T13:01:29;26.70;34.00
40534;DHT22;26233;51.894;10.192;2022-09-09T13:04:01;26.80;34.40
40534;DHT22;26233;51.894;10.192;2022-09-09T13:06:31;26.90;34.70
40534;DHT22;26233;51.894;10.192;2022-09-09T13:09:00;27.20;34.80
40534;DHT22;26233;51.894;10.192;2022-09-09T13:11:31;27.40;34.80
40534;DHT22;26233;51.894;10.192;2022-09-09T13:14:02;27.70;34.50
40534;DHT22;26233;51.894;10.192;2022-09-09T13:16:31;27.90;34.30
40534;DHT22;26233;51.894;10.192;2022-09-09T13:19:06;28.00;33.70
40534;DHT22;26233;51.894;10.192;2022-09-09T13:21:35;28.10;33.40
40534;DHT22;26233;51.894;10.192;2022-09-09T13:24:05;28.10;33.30
40534;DHT22;26233;51.894;10.192;2022-09-09T13:26:33;28.10;32.90
40534;DHT22;26233;51.894;10.192;2022-09-09T13:29:16;28.00;32.70
40534;DHT22;26233;51.894;10.192;2022-09-09T13:31:45;27.80;32.40
40534;DHT22;26233;51.894;10.192;2022-09-09T13:34:25;27.60;32.40
40534;DHT22;26233;51.894;10.192;2022-09-09T13:36:55;27.30;32.20
40534;DHT22;26233;51.894;10.192;2022-09-09T13:39:28;27.10;32.20
40534;DHT22;26233;51.894;10.192;2022-09-09T13:41:55;26.80;32.20
40534;DHT22;26233;51.894;10.192;2022-09-09T13:44:27;26.60;32.30
40534;DHT22;26233;51.894;10.192;2022-09-09T13:47:03;26.40;32.20
40534;DHT22;26233;51.894;10.192;2022-09-09T13:49:33;26.20;32.10
40534;DHT22;26233;51.894;10.192;2022-09-09T13:52:05;26.00;32.30
40534;DHT22;26233;51.894;10.192;2022-09-09T13:54:37;25.90;32.40
40534;DHT22;26233;51.894;10.192;2022-09-09T13:57:15;25.70;32.60
40534;DHT22;26233;51.894;10.192;2022-09-09T13:59:44;25.70;32.80
40534;DHT22;26233;51.894;10.192;2022-09-09T14:02:11;25.60;33.00
40534;DHT22;26233;51.894;10.192;2022-09-09T14:04:40;25.70;33.20
40534;DHT22;26233;51.894;10.192;2022-09-09T14:07:10;25.70;33.00
40534;DHT22;26233;51.894;10.192;2022-09-09T14:09:38;25.70;33.00
40534;DHT22;26233;51.894;10.192;2022-09-09T14:12:06;25.90;33.10
40534;DHT22;26233;51.894;10.192;2022-09-09T14:14:35;26.00;33.00
40534;DHT22;26233;51.894;10.192;2022-09-09T14:17:02;26.10;33.00
40534;DHT22;26233;51.894;10.192;2022-09-09T14:19:30;26.20;32.90
40534;DHT22;26233;51.894;10.192;2022-09-09T14:21:58;26.40;33.00
40534;DHT22;26233;51.894;10.192;2022-09-09T14:24:26;26.60;32.60
40534;DHT22;26233;51.894;10.192;2022-09-09T14:26:54;26.80;32.60
40534;DHT22;26233;51.894;10.192;2022-09-09T14:29:21;26.90;32.20
40534;DHT22;26233;51.894;10.192;2022-09-09T14:31:50;26.90;32.20
40534;DHT22;26233;51.894;10.192;2022-09-09T14:34:17;27.00;32.20
40534;DHT22;26233;51.894;10.192;2022-09-09T14:36:45;27.10;32.20
40534;DHT22;26233;51.894;10.192;2022-09-09T14:39:13;27.10;31.90
40534;DHT22;26233;51.894;10.192;2022-09-09T14:41:40;27.00;31.40
40534;DHT22;26233;51.894;10.192;2022-09-09T14:44:07;26.90;31.20
40534;DHT22;26233;51.894;10.192;2022-09-09T14:46:38;26.70;31.30
40534;DHT22;26233;51.894;10.192;2022-09-09T14:49:08;26.60;31.40
40534;DHT22;26233;51.894;10.192;2022-09-09T14:51:36;26.60;31.60
40534;DHT22;26233;51.894;10.192;2022-09-09T14:54:03;26.50;31.90
40534;DHT22;26233;51.894;10.192;2022-09-09T14:56:33;26.50;32.10
40534;DHT22;26233;51.894;10.192;2022-09-09T14:59:01;26.60;32.00
40534;DHT22;26233;51.894;10.192;2022-09-09T15:01:29;26.60;32.00
40534;DHT22;26233;51.894;10.192;2022-09-09T15:03:58;26.70;32.10
40534;DHT22;26233;51.894;10.192;2022-09-09T15:06:30;26.70;31.80
40534;DHT22;26233;51.894;10.192;2022-09-09T15:08:59;26.70;31.50
40534;DHT22;26233;51.894;10.192;2022-09-09T15:11:27;26.80;31.50
40534;DHT22;26233;51.894;10.192;2022-09-09T15:14:00;26.70;31.50
40534;DHT22;26233;51.894;10.192;2022-09-09T15:16:28;26.70;31.60
40534;DHT22;26233;51.894;10.192;2022-09-09T15:18:57;26.70;31.50
40534;DHT22;26233;51.894;10.192;2022-09-09T15:21:27;26.70;31.60
40534;DHT22;26233;51.894;10.192;2022-09-09T15:23:55;26.70;31.50
40534;DHT22;26233;51.894;10.192;2022-09-09T15:26:23;26.60;31.40
40534;DHT22;26233;51.894;10.192;2022-09-09T15:28:50;26.60;31.40
40534;DHT22;26233;51.894;10.192;2022-09-09T15:31:21;26.60;31.50
40534;DHT22;26233;51.894;10.192;2022-09-09T15:33:49;26.60;31.50
40534;DHT22;26233;51.894;10.192;2022-09-09T15:36:27;26.50;31.50
40534;DHT22;26233;51.894;10.192;2022-09-09T15:38:55;26.50;31.50
40534;DHT22;26233;51.894;10.192;2022-09-09T15:41:23;26.40;31.30
40534;DHT22;26233;51.894;10.192;2022-09-09T15:43:51;26.30;31.20
40534;DHT22;26233;51.894;10.192;2022-09-09T15:46:26;26.10;31.20
40534;DHT22;26233;51.894;10.192;2022-09-09T15:48:56;26.00;31.30
40534;DHT22;26233;51.894;10.192;2022-09-09T15:51:25;25.90;31.40
40534;DHT22;26233;51.894;10.192;2022-09-09T15:53:56;25.80;31.60